sensor_id;sensor_type;location;lat;lon;timestamp;pressure;altitude;pressure_sealevel;temperature;humidity
22775;BME280;11554;51.106;3.684;2023-01-31T00:00:00;102620.31;;;1.99;100.0
22775;BME280;11554;51.106;3.684;2023-01-31T00:05:00;102611.26999999999;;;1.96;100.0
22775;BME280;11554;51.106;3.684;2023-01-31T00:10:00;102608.41;;;1.86;100.0
22775;BME280;11554;51.106;3.684;2023-01-31T00:15:00;102611.66;;;1.84;100.0
22775;BME280;11554;51.106;3.684;2023-01-31T00:20:00;102613.33;;;1.83;100.0
22775;BME280;11554;51.106;3.684;2023-01-31T00:25:00;102617.19;;;1.80;100.0
22775;BME280;11554;51.106;3.684;2023-01-31T00:30:00;102619.20999999999;;;1.76;100.0
22775;BME280;11554;51.106;3.684;2023-01-31T00:35:00;102607.78;;;1.69;100.0
22775;BME280;11554;51.106;3.684;2023-01-31T00:40:00;102602.45;;;1.66;100.0
22775;BME280;11554;51.106;3.684;2023-01-31T00:45:00;102607.8;;;1.60;100.0
22775;BME280;11554;51.106;3.684;2023-01-31T00:50:00;102595.43000000001;;;1.56;100.0
22775;BME280;11554;51.106;3.684;2023-01-31T00:55:00;102593.93;;;1.45;100.0
22775;BME280;11554;51.106;3.684;2023-01-31T01:00:01;102593.87;;;1.44;100.0
22775;BME280;11554;51.106;3.684;2023-01-31T01:05:00;102594.12999999999;;;1.37;100.0
22775;BME280;11554;51.106;3.684;2023-01-31T01:10:00;102599.34000000001;;;1.33;100.0
22775;BME280;11554;51.106;3.684;2023-01-31T01:15:00;102597.85999999999;;;1.30;100.0
22775;BME280;11554;51.106;3.684;2023-01-31T01:20:00;102590.09000000001;;;1.30;100.0
22775;BME280;11554;51.106;3.684;2023-01-31T01:25:00;102590.36000000002;;;1.25;100.0
22775;BME280;11554;51.106;3.684;2023-01-31T01:30:00;102600.48;;;1.08;100.0
22775;BME280;11554;51.106;3.684;2023-01-31T01:35:00;102598.4;;;1.06;100.0
22775;BME280;11554;51.106;3.684;2023-01-31T01:40:00;102588.15999999999;;;1.04;100.0
22775;BME280;11554;51.106;3.684;2023-01-31T01:45:01;102586.68000000001;;;0.95;100.0
22775;BME280;11554;51.106;3.684;2023-01-31T01:50:02;102586.39;;;0.92;100.0
22775;BME280;11554;51.106;3.684;2023-01-31T01:55:01;102586.65000000001;;;0.93;100.0
22775;BME280;11554;51.106;3.684;2023-01-31T02:00:02;102584.45;;;0.94;100.0
22775;BME280;11554;51.106;3.684;2023-01-31T02:05:00;102563.43;;;0.95;100.0
22775;BME280;11554;51.106;3.684;2023-01-31T02:10:02;102564.29000000001;;;0.97;100.0
22775;BME280;11554;51.106;3.684;2023-01-31T02:15:00;102569.36;;;1.05;100.0
22775;BME280;11554;51.106;3.684;2023-01-31T02:20:02;102571.06000000001;;;0.98;100.0
22775;BME280;11554;51.106;3.684;2023-01-31T02:35:02;102580.53;;;0.98;100.0
22775;BME280;11554;51.106;3.684;2023-01-31T02:40:01;102568.29000000001;;;0.96;100.0
22775;BME280;11554;51.106;3.684;2023-01-31T02:45:03;102576.20999999999;;;0.98;100.0
22775;BME280;11554;51.106;3.684;2023-01-31T02:50:01;102583.9;;;0.95;100.0
22775;BME280;11554;51.106;3.684;2023-01-31T02:55:03;102568.91;;;0.93;100.0
22775;BME280;11554;51.106;3.684;2023-01-31T03:00:00;102568.62000000001;;;0.95;100.0
22775;BME280;11554;51.106;3.684;2023-01-31T03:05:00;102562.84000000001;;;0.94;100.0
22775;BME280;11554;51.106;3.684;2023-01-31T03:10:02;102557.46999999999;;;0.94;100.0
22775;BME280;11554;51.106;3.684;2023-01-31T03:15:04;102552.48999999999;;;0.95;100.0
22775;BME280;11554;51.106;3.684;2023-01-31T03:20:03;102550.23000000001;;;0.95;100.0
22775;BME280;11554;51.106;3.684;2023-01-31T03:25:00;102552.42000000001;;;0.89;100.0
22775;BME280;11554;51.106;3.684;2023-01-31T03:30:03;102545.08;;;0.90;100.0
22775;BME280;11554;51.106;3.684;2023-01-31T03:35:00;102545.23999999999;;;0.91;100.0
22775;BME280;11554;51.106;3.684;2023-01-31T03:40:01;102550.23000000001;;;0.91;100.0
22775;BME280;11554;51.106;3.684;2023-01-31T03:45:01;102542.04;;;0.83;100.0
22775;BME280;11554;51.106;3.684;2023-01-31T03:50:01;102534.18999999999;;;0.77;100.0
22775;BME280;11554;51.106;3.684;2023-01-31T03:55:01;102526.16;;;0.75;100.0
22775;BME280;11554;51.106;3.684;2023-01-31T04:00:01;102537.01000000001;;;0.73;100.0
22775;BME280;11554;51.106;3.684;2023-01-31T04:05:02;102543.57;;;0.72;100.0
22775;BME280;11554;51.106;3.684;2023-01-31T04:10:00;102543.99;;;0.72;100.0
22775;BME280;11554;51.106;3.684;2023-01-31T04:15:00;102533.61;;;0.75;100.0
22775;BME280;11554;51.106;3.684;2023-01-31T04:20:00;102525.0;;;0.83;100.0
22775;BME280;11554;51.106;3.684;2023-01-31T04:25:00;102527.81;;;0.86;100.0
22775;BME280;11554;51.106;3.684;2023-01-31T04:30:00;102523.78000000001;;;0.83;100.0
22775;BME280;11554;51.106;3.684;2023-01-31T04:35:00;102513.83;;;0.84;100.0
22775;BME280;11554;51.106;3.684;2023-01-31T04:40:00;102499.65999999999;;;0.91;100.0
22775;BME280;11554;51.106;3.684;2023-01-31T04:45:00;102492.13;;;0.97;100.0
22775;BME280;11554;51.106;3.684;2023-01-31T04:50:00;102490.14;;;1.06;100.0
22775;BME280;11554;51.106;3.684;2023-01-31T04:55:00;102470.63;;;1.18;100.0
22775;BME280;11554;51.106;3.684;2023-01-31T05:00:00;102469.48;;;1.23;100.0
22775;BME280;11554;51.106;3.684;2023-01-31T05:05:00;102468.59;;;1.37;100.0
22775;BME280;11554;51.106;3.684;2023-01-31T05:10:00;102468.65000000001;;;1.50;100.0
22775;BME280;11554;51.106;3.684;2023-01-31T05:15:00;102465.12;;;1.67;100.0
22775;BME280;11554;51.106;3.684;2023-01-31T05:20:00;102462.54;;;1.82;100.0
22775;BME280;11554;51.106;3.684;2023-01-31T05:25:00;102463.53;;;1.89;100.0
22775;BME280;11554;51.106;3.684;2023-01-31T05:30:00;102463.16999999998;;;1.98;100.0
22775;BME280;11554;51.106;3.684;2023-01-31T05:35:00;102469.96999999999;;;2.05;100.0
22775;BME280;11554;51.106;3.684;2023-01-31T05:40:00;102474.48999999999;;;2.17;100.0
22775;BME280;11554;51.106;3.684;2023-01-31T05:45:00;102459.96;;;2.27;100.0
22775;BME280;11554;51.106;3.684;2023-01-31T05:50:00;102457.87;;;2.33;100.0
22775;BME280;11554;51.106;3.684;2023-01-31T05:55:00;102465.3;;;2.41;100.0
22775;BME280;11554;51.106;3.684;2023-01-31T06:00:00;102457.37;;;2.48;100.0
22775;BME280;11554;51.106;3.684;2023-01-31T06:05:00;102443.03;;;2.53;100.0
22775;BME280;11554;51.106;3.684;2023-01-31T06:10:01;102436.72999999998;;;2.62;100.0
22775;BME280;11554;51.106;3.684;2023-01-31T06:15:00;102430.42;;;2.66;100.0
22775;BME280;11554;51.106;3.684;2023-01-31T06:20:00;102426.25;;;2.73;100.0
22775;BME280;11554;51.106;3.684;2023-01-31T06:25:00;102417.40999999999;;;2.76;100.0
22775;BME280;11554;51.106;3.684;2023-01-31T06:30:00;102411.79;;;2.79;100.0
22775;BME280;11554;51.106;3.684;2023-01-31T06:35:00;102413.75;;;2.81;100.0
22775;BME280;11554;51.106;3.684;2023-01-31T06:40:00;102422.67;;;2.88;100.0
22775;BME280;11554;51.106;3.684;2023-01-31T06:45:00;102410.69;;;2.95;100.0
22775;BME280;11554;51.106;3.684;2023-01-31T06:50:00;102407.32;;;3.06;100.0
22775;BME280;11554;51.106;3.684;2023-01-31T06:55:00;102394.70999999999;;;3.12;100.0
22775;BME280;11554;51.106;3.684;2023-01-31T07:00:00;102405.37;;;3.22;100.0
22775;BME280;11554;51.106;3.684;2023-01-31T07:05:00;102418.93;;;3.26;100.0
22775;BME280;11554;51.106;3.684;2023-01-31T07:10:00;102423.51000000001;;;3.29;100.0
22775;BME280;11554;51.106;3.684;2023-01-31T07:15:00;102428.33;;;3.29;100.0
22775;BME280;11554;51.106;3.684;2023-01-31T07:20:00;102432.90999999999;;;3.34;100.0
22775;BME280;11554;51.106;3.684;2023-01-31T07:25:00;102430.13;;;3.41;100.0
22775;BME280;11554;51.106;3.684;2023-01-31T07:30:00;102420.23;;;3.42;100.0
22775;BME280;11554;51.106;3.684;2023-01-31T07:35:00;102428.78;;;3.45;100.0
22775;BME280;11554;51.106;3.684;2023-01-31T07:40:00;102433.7;;;3.50;100.0
22775;BME280;11554;51.106;3.684;2023-01-31T07:45:00;102432.93000000001;;;3.58;100.0
22775;BME280;11554;51.106;3.684;2023-01-31T07:50:00;102429.36;;;3.67;100.0
22775;BME280;11554;51.106;3.684;2023-01-31T07:55:00;102423.90000000001;;;3.79;100.0
22775;BME280;11554;51.106;3.684;2023-01-31T08:00:00;102428.2;;;3.92;100.0
22775;BME280;11554;51.106;3.684;2023-01-31T08:05:00;102421.47;;;4.03;100.0
22775;BME280;11554;51.106;3.684;2023-01-31T08:10:00;102412.59999999999;;;4.10;100.0
22775;BME280;11554;51.106;3.684;2023-01-31T08:15:00;102403.81;;;4.18;100.0
22775;BME280;11554;51.106;3.684;2023-01-31T08:20:00;102406.13;;;4.24;100.0
22775;BME280;11554;51.106;3.684;2023-01-31T08:25:00;102382.83;;;4.33;100.0
22775;BME280;11554;51.106;3.684;2023-01-31T08:30:00;102391.4;;;4.40;100.0
22775;BME280;11554;51.106;3.684;2023-01-31T08:35:00;102394.41;;;4.44;100.0
22775;BME280;11554;51.106;3.684;2023-01-31T08:40:00;102388.53;;;4.54;100.0
22775;BME280;11554;51.106;3.684;2023-01-31T08:45:00;102379.49;;;4.60;100.0
22775;BME280;11554;51.106;3.684;2023-01-31T08:50:00;102367.88;;;4.67;100.0
22775;BME280;11554;51.106;3.684;2023-01-31T08:55:00;102378.54;;;4.72;100.0
22775;BME280;11554;51.106;3.684;2023-01-31T09:00:00;102375.94;;;4.80;100.0
22775;BME280;11554;51.106;3.684;2023-01-31T09:05:00;102377.17;;;4.91;100.0
22775;BME280;11554;51.106;3.684;2023-01-31T09:10:00;102377.95;;;4.95;100.0
22775;BME280;11554;51.106;3.684;2023-01-31T09:15:00;102372.43;;;5.06;100.0
22775;BME280;11554;51.106;3.684;2023-01-31T09:20:00;102369.14;;;5.17;100.0
22775;BME280;11554;51.106;3.684;2023-01-31T09:25:00;102374.81;;;5.25;100.0
22775;BME280;11554;51.106;3.684;2023-01-31T09:30:00;102373.22;;;5.31;100.0
22775;BME280;11554;51.106;3.684;2023-01-31T09:35:00;102366.6;;;5.30;100.0
22775;BME280;11554;51.106;3.684;2023-01-31T09:40:00;102344.23000000001;;;5.43;100.0
22775;BME280;11554;51.106;3.684;2023-01-31T09:45:01;102339.72;;;5.58;100.0
22775;BME280;11554;51.106;3.684;2023-01-31T09:50:02;102366.38;;;5.84;100.0
22775;BME280;11554;51.106;3.684;2023-01-31T09:55:00;102362.34;;;5.86;100.0
22775;BME280;11554;51.106;3.684;2023-01-31T10:00:02;102345.23000000001;;;5.80;100.0
22775;BME280;11554;51.106;3.684;2023-01-31T10:05:03;102353.36;;;5.89;100.0
22775;BME280;11554;51.106;3.684;2023-01-31T10:10:02;102365.59;;;6.26;100.0
22775;BME280;11554;51.106;3.684;2023-01-31T10:15:01;102368.12999999999;;;6.49;100.0
22775;BME280;11554;51.106;3.684;2023-01-31T10:20:02;102353.09;;;6.72;100.0
22775;BME280;11554;51.106;3.684;2023-01-31T10:25:02;102343.3;;;6.91;100.0
22775;BME280;11554;51.106;3.684;2023-01-31T10:30:02;102309.38;;;7.43;100.0
22775;BME280;11554;51.106;3.684;2023-01-31T10:35:01;102308.82;;;8.11;100.0
22775;BME280;11554;51.106;3.684;2023-01-31T10:40:01;102325.47;;;8.24;100.0
22775;BME280;11554;51.106;3.684;2023-01-31T10:45:01;102333.4;;;8.06;100.0
22775;BME280;11554;51.106;3.684;2023-01-31T10:50:00;102323.08;;;8.03;100.0
22775;BME280;11554;51.106;3.684;2023-01-31T10:55:03;102314.70000000001;;;8.04;100.0
22775;BME280;11554;51.106;3.684;2023-01-31T11:00:00;102314.42;;;8.34;100.0
22775;BME280;11554;51.106;3.684;2023-01-31T11:05:00;102324.11;;;8.75;100.0
22775;BME280;11554;51.106;3.684;2023-01-31T11:10:00;102320.54000000001;;;8.69;100.0
22775;BME280;11554;51.106;3.684;2023-01-31T11:15:04;102301.9;;;8.85;100.0
22775;BME280;11554;51.106;3.684;2023-01-31T11:20:00;102301.61;;;9.26;100.0
22775;BME280;11554;51.106;3.684;2023-01-31T11:25:00;102304.17;;;9.27;100.0
22775;BME280;11554;51.106;3.684;2023-01-31T11:30:00;102293.31;;;9.16;100.0
22775;BME280;11554;51.106;3.684;2023-01-31T11:35:00;102282.28;;;9.01;100.0
22775;BME280;11554;51.106;3.684;2023-01-31T11:40:01;102269.87000000001;;;8.88;100.0
22775;BME280;11554;51.106;3.684;2023-01-31T11:45:02;102278.24;;;8.84;100.0
22775;BME280;11554;51.106;3.684;2023-01-31T11:50:00;102271.26;;;8.72;100.0
22775;BME280;11554;51.106;3.684;2023-01-31T11:55:01;102266.86;;;8.62;100.0
22775;BME280;11554;51.106;3.684;2023-01-31T12:00:00;102259.59;;;8.55;100.0
22775;BME280;11554;51.106;3.684;2023-01-31T12:05:00;102257.83;;;8.75;100.0
22775;BME280;11554;51.106;3.684;2023-01-31T12:10:00;102260.05;;;8.73;100.0
22775;BME280;11554;51.106;3.684;2023-01-31T12:15:01;102261.01999999999;;;8.62;100.0
22775;BME280;11554;51.106;3.684;2023-01-31T12:20:04;102268.97;;;8.50;100.0
22775;BME280;11554;51.106;3.684;2023-01-31T12:25:03;102269.86;;;8.42;100.0
22775;BME280;11554;51.106;3.684;2023-01-31T12:30:05;102274.59;;;8.36;100.0
22775;BME280;11554;51.106;3.684;2023-01-31T12:35:13;102276.42;;;8.28;100.0
22775;BME280;11554;51.106;3.684;2023-01-31T12:40:05;102275.3;;;8.27;100.0
22775;BME280;11554;51.106;3.684;2023-01-31T12:45:02;102278.52;;;8.16;100.0
22775;BME280;11554;51.106;3.684;2023-01-31T12:50:08;102273.94;;;8.00;100.0
22775;BME280;11554;51.106;3.684;2023-01-31T12:55:02;102258.68000000001;;;7.95;100.0
22775;BME280;11554;51.106;3.684;2023-01-31T13:00:04;102258.03;;;7.92;100.0
22775;BME280;11554;51.106;3.684;2023-01-31T13:05:01;102257.75;;;7.86;100.0
22775;BME280;11554;51.106;3.684;2023-01-31T13:10:01;102239.15;;;7.92;100.0
22775;BME280;11554;51.106;3.684;2023-01-31T13:15:01;102237.94;;;8.09;100.0
22775;BME280;11554;51.106;3.684;2023-01-31T13:20:01;102233.01;;;8.16;100.0
22775;BME280;11554;51.106;3.684;2023-01-31T13:25:04;102237.47;;;8.32;100.0
22775;BME280;11554;51.106;3.684;2023-01-31T13:30:01;102234.19;;;8.53;100.0
22775;BME280;11554;51.106;3.684;2023-01-31T13:35:02;102226.4;;;8.58;100.0
22775;BME280;11554;51.106;3.684;2023-01-31T13:40:01;102216.27;;;8.84;100.0
22775;BME280;11554;51.106;3.684;2023-01-31T13:45:01;102214.29000000001;;;8.91;100.0
22775;BME280;11554;51.106;3.684;2023-01-31T13:50:01;102207.04;;;9.04;100.0
22775;BME280;11554;51.106;3.684;2023-01-31T13:55:00;102206.47;;;8.82;100.0
22775;BME280;11554;51.106;3.684;2023-01-31T14:00:04;102206.69;;;8.99;100.0
22775;BME280;11554;51.106;3.684;2023-01-31T14:05:04;102215.48;;;9.01;100.0
22775;BME280;11554;51.106;3.684;2023-01-31T14:15:00;102218.45;;;9.09;100.0
22775;BME280;11554;51.106;3.684;2023-01-31T14:20:02;102229.37;;;9.24;100.0
22775;BME280;11554;51.106;3.684;2023-01-31T14:25:01;102234.93999999999;;;9.24;100.0
22775;BME280;11554;51.106;3.684;2023-01-31T14:30:07;102251.72;;;9.43;100.0
22775;BME280;11554;51.106;3.684;2023-01-31T14:35:01;102260.56999999999;;;9.65;100.0
22775;BME280;11554;51.106;3.684;2023-01-31T14:40:07;102260.15;;;9.70;100.0
22775;BME280;11554;51.106;3.684;2023-01-31T14:45:05;102258.81000000001;;;9.88;100.0
22775;BME280;11554;51.106;3.684;2023-01-31T14:55:03;102268.84;;;9.52;100.0
22775;BME280;11554;51.106;3.684;2023-01-31T15:00:00;102265.98;;;9.59;100.0
22775;BME280;11554;51.106;3.684;2023-01-31T15:05:01;102271.23;;;9.42;100.0
22775;BME280;11554;51.106;3.684;2023-01-31T15:10:01;102284.77;;;9.31;100.0
22775;BME280;11554;51.106;3.684;2023-01-31T15:15:00;102272.03;;;9.18;100.0
22775;BME280;11554;51.106;3.684;2023-01-31T15:20:02;102277.62;;;9.03;100.0
22775;BME280;11554;51.106;3.684;2023-01-31T15:25:01;102279.45999999999;;;8.86;100.0
22775;BME280;11554;51.106;3.684;2023-01-31T15:30:02;102286.05;;;8.84;100.0
22775;BME280;11554;51.106;3.684;2023-01-31T15:35:00;102276.95;;;8.78;100.0
22775;BME280;11554;51.106;3.684;2023-01-31T15:40:02;102280.79000000001;;;8.64;100.0
22775;BME280;11554;51.106;3.684;2023-01-31T15:50:00;102281.7;;;8.56;100.0
22775;BME280;11554;51.106;3.684;2023-01-31T15:55:02;102288.19;;;8.47;100.0
22775;BME280;11554;51.106;3.684;2023-01-31T16:00:00;102297.92;;;8.39;100.0
22775;BME280;11554;51.106;3.684;2023-01-31T16:05:01;102303.05;;;8.32;100.0
22775;BME280;11554;51.106;3.684;2023-01-31T16:10:00;102298.46;;;8.24;100.0
22775;BME280;11554;51.106;3.684;2023-01-31T16:15:02;102314.54;;;8.11;100.0
22775;BME280;11554;51.106;3.684;2023-01-31T16:20:00;102327.94;;;8.05;100.0
22775;BME280;11554;51.106;3.684;2023-01-31T16:25:02;102326.34000000001;;;8.00;100.0
22775;BME280;11554;51.106;3.684;2023-01-31T16:30:00;102324.7;;;7.97;100.0
22775;BME280;11554;51.106;3.684;2023-01-31T16:35:01;102326.73;;;7.97;100.0
22775;BME280;11554;51.106;3.684;2023-01-31T16:40:02;102329.12;;;7.95;100.0
22775;BME280;11554;51.106;3.684;2023-01-31T16:45:00;102332.86;;;7.93;100.0
22775;BME280;11554;51.106;3.684;2023-01-31T16:55:00;102347.83;;;7.90;100.0
22775;BME280;11554;51.106;3.684;2023-01-31T17:00:00;102342.62999999999;;;7.87;100.0
22775;BME280;11554;51.106;3.684;2023-01-31T17:05:01;102334.84;;;7.86;100.0
22775;BME280;11554;51.106;3.684;2023-01-31T17:10:01;102342.96;;;7.82;100.0
22775;BME280;11554;51.106;3.684;2023-01-31T17:15:00;102338.4;;;7.82;100.0
22775;BME280;11554;51.106;3.684;2023-01-31T17:20:00;102339.9;;;7.82;100.0
22775;BME280;11554;51.106;3.684;2023-01-31T17:25:00;102335.35;;;7.85;100.0
22775;BME280;11554;51.106;3.684;2023-01-31T17:30:00;102340.55;;;7.82;100.0
22775;BME280;11554;51.106;3.684;2023-01-31T17:35:00;102346.63;;;7.74;100.0
22775;BME280;11554;51.106;3.684;2023-01-31T17:40:00;102345.51;;;7.62;100.0
22775;BME280;11554;51.106;3.684;2023-01-31T17:45:00;102342.56;;;7.54;100.0
22775;BME280;11554;51.106;3.684;2023-01-31T17:50:00;102337.3;;;7.46;100.0
22775;BME280;11554;51.106;3.684;2023-01-31T17:55:00;102334.84999999999;;;7.31;100.0
22775;BME280;11554;51.106;3.684;2023-01-31T18:00:00;102327.21;;;7.26;100.0
22775;BME280;11554;51.106;3.684;2023-01-31T18:05:00;102322.99;;;7.18;100.0
22775;BME280;11554;51.106;3.684;2023-01-31T18:10:00;102332.14;;;7.09;100.0
22775;BME280;11554;51.106;3.684;2023-01-31T18:15:00;102323.8;;;6.98;100.0
22775;BME280;11554;51.106;3.684;2023-01-31T18:20:00;102323.55;;;6.85;100.0
22775;BME280;11554;51.106;3.684;2023-01-31T18:25:00;102314.48000000001;;;6.68;100.0
22775;BME280;11554;51.106;3.684;2023-01-31T18:30:00;102320.83;;;6.56;100.0
22775;BME280;11554;51.106;3.684;2023-01-31T18:35:00;102326.67;;;6.49;100.0
22775;BME280;11554;51.106;3.684;2023-01-31T18:40:00;102327.81;;;6.39;100.0
22775;BME280;11554;51.106;3.684;2023-01-31T18:45:00;102331.23000000001;;;6.27;100.0
22775;BME280;11554;51.106;3.684;2023-01-31T18:50:00;102336.1;;;6.15;100.0
22775;BME280;11554;51.106;3.684;2023-01-31T18:55:00;102342.97;;;6.13;100.0
22775;BME280;11554;51.106;3.684;2023-01-31T19:00:00;102339.9;;;6.06;100.0
22775;BME280;11554;51.106;3.684;2023-01-31T19:05:00;102343.51000000001;;;6.03;100.0
22775;BME280;11554;51.106;3.684;2023-01-31T19:10:00;102343.69;;;5.95;100.0
22775;BME280;11554;51.106;3.684;2023-01-31T19:15:00;102353.17;;;5.86;100.0
22775;BME280;11554;51.106;3.684;2023-01-31T19:20:00;102356.84;;;5.83;100.0
22775;BME280;11554;51.106;3.684;2023-01-31T19:25:00;102361.08;;;5.83;100.0
22775;BME280;11554;51.106;3.684;2023-01-31T19:30:00;102366.74;;;5.76;100.0
22775;BME280;11554;51.106;3.684;2023-01-31T19:35:00;102361.3;;;5.69;100.0
22775;BME280;11554;51.106;3.684;2023-01-31T19:40:00;102354.49;;;5.61;100.0
22775;BME280;11554;51.106;3.684;2023-01-31T19:45:00;102348.94;;;5.56;100.0
22775;BME280;11554;51.106;3.684;2023-01-31T19:50:00;102350.48000000001;;;5.47;100.0
22775;BME280;11554;51.106;3.684;2023-01-31T19:55:00;102357.95000000001;;;5.40;100.0
22775;BME280;11554;51.106;3.684;2023-01-31T20:00:00;102356.1;;;5.26;100.0
22775;BME280;11554;51.106;3.684;2023-01-31T20:05:00;102355.67;;;5.04;100.0
22775;BME280;11554;51.106;3.684;2023-01-31T20:10:00;102352.19;;;4.87;100.0
22775;BME280;11554;51.106;3.684;2023-01-31T20:15:00;102345.28;;;4.79;100.0
22775;BME280;11554;51.106;3.684;2023-01-31T20:20:00;102347.36;;;4.70;100.0
22775;BME280;11554;51.106;3.684;2023-01-31T20:25:00;102345.03;;;4.53;100.0
22775;BME280;11554;51.106;3.684;2023-01-31T20:30:00;102345.68000000001;;;4.44;100.0
22775;BME280;11554;51.106;3.684;2023-01-31T20:35:00;102343.34999999999;;;4.37;100.0
22775;BME280;11554;51.106;3.684;2023-01-31T20:40:00;102349.44;;;4.20;100.0
22775;BME280;11554;51.106;3.684;2023-01-31T20:45:00;102358.87;;;4.07;100.0
22775;BME280;11554;51.106;3.684;2023-01-31T20:50:00;102357.08;;;4.03;100.0
22775;BME280;11554;51.106;3.684;2023-01-31T20:55:00;102349.90000000001;;;3.99;100.0
22775;BME280;11554;51.106;3.684;2023-01-31T21:00:00;102348.29999999999;;;3.93;100.0
22775;BME280;11554;51.106;3.684;2023-01-31T21:05:00;102353.3;;;3.95;100.0
22775;BME280;11554;51.106;3.684;2023-01-31T21:10:00;102346.37;;;3.90;100.0
22775;BME280;11554;51.106;3.684;2023-01-31T21:15:00;102357.61;;;3.74;100.0
22775;BME280;11554;51.106;3.684;2023-01-31T21:20:00;102360.05;;;3.78;100.0
22775;BME280;11554;51.106;3.684;2023-01-31T21:25:00;102352.23999999999;;;3.88;100.0
22775;BME280;11554;51.106;3.684;2023-01-31T21:30:00;102336.99;;;3.91;100.0
22775;BME280;11554;51.106;3.684;2023-01-31T21:35:00;102342.96;;;3.84;100.0
22775;BME280;11554;51.106;3.684;2023-01-31T21:40:00;102331.33;;;3.70;100.0
22775;BME280;11554;51.106;3.684;2023-01-31T21:45:00;102320.17;;;3.54;100.0
22775;BME280;11554;51.106;3.684;2023-01-31T21:50:00;102310.93;;;3.51;100.0
22775;BME280;11554;51.106;3.684;2023-01-31T21:55:00;102308.67;;;3.47;100.0
22775;BME280;11554;51.106;3.684;2023-01-31T22:00:00;102306.16;;;3.30;100.0
22775;BME280;11554;51.106;3.684;2023-01-31T22:05:00;102304.08;;;3.17;100.0
22775;BME280;11554;51.106;3.684;2023-01-31T22:10:00;102307.28;;;3.06;100.0
22775;BME280;11554;51.106;3.684;2023-01-31T22:15:00;102301.93000000001;;;3.02;100.0
22775;BME280;11554;51.106;3.684;2023-01-31T22:20:00;102300.53;;;3.09;100.0
22775;BME280;11554;51.106;3.684;2023-01-31T22:25:00;102305.12999999999;;;3.08;100.0
22775;BME280;11554;51.106;3.684;2023-01-31T22:30:00;102311.86;;;3.06;100.0
22775;BME280;11554;51.106;3.684;2023-01-31T22:35:00;102312.23;;;3.03;100.0
22775;BME280;11554;51.106;3.684;2023-01-31T22:40:00;102312.06;;;2.97;100.0
22775;BME280;11554;51.106;3.684;2023-01-31T22:45:00;102305.28;;;3.04;100.0
22775;BME280;11554;51.106;3.684;2023-01-31T22:50:00;102308.4;;;3.08;100.0
22775;BME280;11554;51.106;3.684;2023-01-31T22:55:00;102311.03;;;3.24;100.0
22775;BME280;11554;51.106;3.684;2023-01-31T23:00:00;102302.51;;;3.40;100.0
22775;BME280;11554;51.106;3.684;2023-01-31T23:05:00;102304.96;;;3.56;100.0
22775;BME280;11554;51.106;3.684;2023-01-31T23:10:00;102303.05;;;3.75;100.0
22775;BME280;11554;51.106;3.684;2023-01-31T23:15:00;102298.49;;;3.84;100.0
22775;BME280;11554;51.106;3.684;2023-01-31T23:20:00;102300.67;;;3.98;100.0
22775;BME280;11554;51.106;3.684;2023-01-31T23:25:00;102300.67;;;4.12;100.0
22775;BME280;11554;51.106;3.684;2023-01-31T23:30:00;102298.93;;;4.16;100.0
22775;BME280;11554;51.106;3.684;2023-01-31T23:35:00;102294.3;;;4.26;100.0
22775;BME280;11554;51.106;3.684;2023-01-31T23:40:00;102292.71;;;4.30;100.0
22775;BME280;11554;51.106;3.684;2023-01-31T23:45:00;102277.14;;;4.31;100.0
22775;BME280;11554;51.106;3.684;2023-01-31T23:50:00;102277.37;;;4.29;100.0
22775;BME280;11554;51.106;3.684;2023-01-31T23:55:00;102270.75;;;4.31;100.0
